x

Shelikof Strait, Ak (46077) Wave Buoy

6:50am - Tue 22nd Jul 2014 All times are AKDT. -8 hours from GMT.

  • Sig Wave height 2.3ft
  • Peak Period 4s
  • Average Period 4s
  • Wind
    13mph, 16mph gusts
  • Sea Temp 54°f
  • Air Temp 52°f
  • Sea Pressure 1016.1mb
  • Shelikof  Strait, Ak
  • Shelikof  Strait, Ak

More Historic Weather Station data

Upgrade to MSW Pro to gain access to the past 30 days of data for over 8000 Wavebouys and Weather Stations around the globe.

Join Pro

Comparision Forecast

View Surf forecast
   
Tue 07/22 6:50am 2.5ft 4s 4s 13 16 mph 1016.1mb 54f 52f
5:50am 2ft 4s 4s 13 18 mph 1016.4mb 55f 53f
4:50am 2.5ft 4s 4s 16 20 mph 1016.7mb 55f 53f
3:50am 2.5ft 4s 4s 16 18 mph 1017mb 55f 53f
2:50am 2ft 4s 4s 13 16 mph 1017.5mb 55f 53f
1:50am 2.5ft 4s 4s 16 20 mph 1017.9mb 55f 53f
12:50am 3ft 4s 4s 18 20 mph 1017.8mb 55f 53f
Mon 07/21 11:50pm 3ft 4s 4s 20 25 mph 1018mb 55f 54f
10:50pm 3.5ft 4s 4s 22 25 mph 1018.1mb 55f 54f
9:50pm 3.5ft 5s 4s 20 25 mph 1017.8mb 55f 55f
8:50pm 3.5ft 4s 4s 20 22 mph 1017.6mb 55f 54f
7:50pm 3ft 4s 4s 18 22 mph 1018mb 55f 55f
6:50pm 3ft 3s 4s 22 27 mph 1017.8mb 56f 55f
5:50pm 2.5ft 4s 4s 20 25 mph 1017.9mb 57f 55f
4:50pm 2.5ft 10s 4s 18 22 mph 1018.2mb 57f 55f
3:50pm 2.5ft 10s 4s 16 18 mph 1018.6mb 56f 55f
2:50pm 2ft 9s 4s 13 16 mph 1018.8mb 55f 54f
1:50pm 1.6ft 9s 4s 16 18 mph 1018.7mb 53f 55f
12:50pm 2ft 10s 5s 16
mph
1018.6mb 53f 54f
11:50am 1.6ft 10s 5s 9 11 mph 1018.7mb 53f 53f
10:50am 2ft 11s 5s 9 11 mph 1018.7mb 52f 53f
9:50am 2ft 9s 5s 9 11 mph 1018.6mb 53f 53f
8:50am 2.5ft 10s 5s 9 11 mph 1018.4mb 53f 53f
7:50am 2.5ft 5s 5s 11 13 mph 1018.1mb 53f 53f
6:50am 2ft 6s 5s 9 11 mph 1018mb 53f 53f
5:50am 2.5ft 11s 5s 7 9 mph 1018mb 54f 53f
4:50am 2.5ft 11s 5s 4 7 mph 1018.1mb 53f 53f
3:50am 2.5ft 10s 6s 7
mph
1017.8mb 53f 54f
2:50am 2.5ft 11s 6s 9
mph
1017.3mb 51f 53f
1:50am 2.5ft 11s 6s 2 4 mph 1017mb 52f 54f
12:50am 2.5ft 6s 5s 9 11 mph 1016.4mb 52f 55f
Sun 07/20 11:50pm 2.5ft 6s 5s 4 7 mph 1015.6mb 53f 56f
10:50pm 2.5ft 11s 5s 7 11 mph 1014.9mb 54f 58f
9:50pm 3.5ft 11s 5s 2 4 mph 1014.4mb 55f 57f
8:50pm 3ft 11s 5s 4
mph
1013.6mb 54f 59f
7:50pm 3ft 6s 5s 7 9 mph 1013.5mb 53f 59f
6:50pm 3ft 7s 5s 11
mph
1013.2mb 52f 58f
5:50pm 3ft 10s 5s 11 13 mph 1013.1mb 52f 57f
4:50pm 3.5ft 7s 5s 9 11 mph 1013.1mb 52f 56f
3:50pm 3.5ft 7s 5s 11
mph
1012.9mb 52f 56f
2:50pm 3.5ft 6s 5s 7
mph
1012.4mb 51f 56f
1:50pm 4ft 6s 5s 11 16 mph 1011.9mb 51f 55f
12:50pm 4ft 7s 5s 7 9 mph 1011.5mb 51f 55f
11:50am 4.5ft 7s 5s 11 13 mph 1010.8mb 51f 56f
10:50am 5ft 6s 5s 16 18 mph 1010.2mb 51f 55f
9:50am 5ft 6s 5s 20 25 mph 1009.4mb 51f 55f
8:50am 5ft 6s 5s 22 25 mph 1009.1mb 51f 54f
7:50am 6ft 6s 5s 25 29 mph 1008.7mb 51f 52f
5:50am 7ft 7s 5s 29 34 mph 1009.1mb 50f 52f
4:50am 6ft 6s 5s 29 36 mph 1009.2mb 50f 51f
3:50am 6.5ft 5s 5s 31 38 mph 1008.8mb 50f 51f
2:50am 7ft 6s 5s 34 40 mph 1008.3mb 51f 51f
1:50am 6.5ft 6s 5s 31 38 mph 1008.6mb 51f 52f
12:50am 6.5ft 7s 5s 27 34 mph 1009mb 51f 52f
Sat 07/19 11:50pm 7ft 6s 5s 29 34 mph 1009mb 51f 52f
10:50pm 7ft 6s 5s 27 34 mph 1009.1mb 51f 52f
9:50pm 7ft 6s 5s 29 34 mph 1008.9mb 51f 53f
8:50pm 7ft 6s 5s 31 38 mph 1009mb 52f 53f
7:50pm 6.5ft 6s 5s 29 36 mph 1008.8mb 52f 54f
6:50pm 6ft 6s 5s 29 34 mph 1009.1mb 52f 54f
5:50pm 7ft 6s 5s 29 34 mph 1009.4mb 52f 54f
4:50pm 6.5ft 6s 5s 31 38 mph 1009.3mb 52f 54f
3:50pm 6.5ft 6s 5s 31 38 mph 1009.1mb 52f 54f
2:50pm 6ft 6s 5s 29 36 mph 1009.2mb 52f 54f
1:50pm 5ft 6s 5s 27 34 mph 1009.4mb 52f 54f
12:50pm 5ft 5s 5s 25 29 mph 1009.3mb 52f 54f
11:50am 5ft 6s 5s 25 31 mph 1009.1mb 52f 53f
10:50am 5ft 5s 4s 27 34 mph 1008.7mb 52f 53f
9:50am 5ft 5s 4s 27 31 mph 1008.7mb 52f 52f
8:50am 5ft 5s 4s 29 36 mph 1008.3mb 52f 52f
7:50am 4.5ft 5s 4s 29 34 mph 1008.2mb 52f 53f
6:50am 4ft 5s 4s 25 29 mph 1008.4mb 52f 53f
5:50am 3ft 4s 4s 18 25 mph 1008.8mb 52f 54f
4:50am 3ft 4s 4s 22 25 mph 1009mb 52f 53f
3:50am 3.5ft 5s 4s 18 20 mph 1009.8mb 52f 53f
2:50am 3.5ft 4s 4s 20 25 mph 1009.8mb 52f 54f
1:50am 3.5ft 4s 4s 13 18 mph 1010.3mb 52f 54f
12:50am 3.5ft 11s 4s 20 25 mph 1009.8mb 52f 55f
Fri 07/18 11:50pm 3ft 5s 4s 22 27 mph 1009.6mb 53f 55f
10:50pm 3.5ft 4s 4s 18 20 mph 1009.9mb 53f 55f
8:50pm 4.5ft 5s 4s 25 29 mph 1009.6mb 53f 56f
7:50pm 3.5ft 5s 4s 25 29 mph 1009.9mb 53f 57f
6:50pm 3.5ft 5s 4s 25 31 mph 1009.7mb 53f 58f
5:50pm 3.5ft 5s 4s 25 29 mph 1009.9mb 53f 57f
4:50pm 3.5ft 5s 4s 20 25 mph 1010mb 53f 57f